sensor_id;sensor_type;location;lat;lon;timestamp;pressure;altitude;pressure_sealevel;temperature;humidity
73415;BME280;61633;53.742;-2.990;2022-07-29T00:02:23;101856.50;;;18.99;46.38
73415;BME280;61633;53.742;-2.990;2022-07-29T00:04:49;101854.64;;;19.48;45.81
73415;BME280;61633;53.742;-2.990;2022-07-29T00:07:14;101847.51;;;19.45;44.93
73415;BME280;61633;53.742;-2.990;2022-07-29T00:09:39;101849.97;;;19.64;45.68
73415;BME280;61633;53.742;-2.990;2022-07-29T00:12:06;101850.39;;;19.24;45.68
73415;BME280;61633;53.742;-2.990;2022-07-29T00:14:30;101852.50;;;19.45;45.71
73415;BME280;61633;53.742;-2.990;2022-07-29T00:16:56;101851.73;;;19.54;45.94
73415;BME280;61633;53.742;-2.990;2022-07-29T00:19:21;101853.33;;;19.05;45.78
73415;BME280;61633;53.742;-2.990;2022-07-29T00:21:47;101851.80;;;19.48;45.90
73415;BME280;61633;53.742;-2.990;2022-07-29T00:24:13;101849.48;;;19.38;45.52
73415;BME280;61633;53.742;-2.990;2022-07-29T00:26:37;101847.54;;;19.26;45.40
73415;BME280;61633;53.742;-2.990;2022-07-29T00:29:04;101851.06;;;18.91;45.74
73415;BME280;61633;53.742;-2.990;2022-07-29T00:31:29;101845.33;;;19.39;44.90
73415;BME280;61633;53.742;-2.990;2022-07-29T00:33:55;101848.47;;;19.49;45.44
73415;BME280;61633;53.742;-2.990;2022-07-29T00:36:20;101844.38;;;19.58;44.89
73415;BME280;61633;53.742;-2.990;2022-07-29T00:38:46;101839.98;;;19.24;44.49
73415;BME280;61633;53.742;-2.990;2022-07-29T00:41:11;101840.89;;;18.90;45.58
73415;BME280;61633;53.742;-2.990;2022-07-29T00:43:36;101841.12;;;18.93;46.19
73415;BME280;61633;53.742;-2.990;2022-07-29T00:46:01;101836.99;;;19.48;44.87
73415;BME280;61633;53.742;-2.990;2022-07-29T00:48:28;101837.47;;;19.04;45.11
73415;BME280;61633;53.742;-2.990;2022-07-29T00:50:53;101839.01;;;19.06;45.29
73415;BME280;61633;53.742;-2.990;2022-07-29T00:53:19;101838.08;;;18.76;45.37
73415;BME280;61633;53.742;-2.990;2022-07-29T00:55:44;101837.62;;;18.96;45.36
73415;BME280;61633;53.742;-2.990;2022-07-29T00:58:12;101841.37;;;18.52;46.37
73415;BME280;61633;53.742;-2.990;2022-07-29T01:00:34;101838.77;;;18.84;45.61
73415;BME280;61633;53.742;-2.990;2022-07-29T01:03:01;101838.39;;;18.97;45.97
73415;BME280;61633;53.742;-2.990;2022-07-29T01:05:28;101834.81;;;19.01;45.52
73415;BME280;61633;53.742;-2.990;2022-07-29T01:07:54;101836.75;;;18.86;45.72
73415;BME280;61633;53.742;-2.990;2022-07-29T01:10:18;101834.57;;;18.81;45.21
73415;BME280;61633;53.742;-2.990;2022-07-29T01:12:43;101836.19;;;19.31;45.26
73415;BME280;61633;53.742;-2.990;2022-07-29T01:15:08;101834.28;;;19.00;45.57
73415;BME280;61633;53.742;-2.990;2022-07-29T01:17:38;101837.93;;;18.36;46.34
73415;BME280;61633;53.742;-2.990;2022-07-29T01:20:04;101835.79;;;18.89;45.70
73415;BME280;61633;53.742;-2.990;2022-07-29T01:22:31;101835.71;;;18.64;45.47
73415;BME280;61633;53.742;-2.990;2022-07-29T01:25:03;101836.40;;;18.85;45.35
73415;BME280;61633;53.742;-2.990;2022-07-29T01:27:29;101838.79;;;18.84;45.59
73415;BME280;61633;53.742;-2.990;2022-07-29T01:29:43;101838.50;;;18.88;46.03
73415;BME280;61633;53.742;-2.990;2022-07-29T01:32:10;101840.32;;;18.90;45.33
73415;BME280;61633;53.742;-2.990;2022-07-29T01:34:45;101842.30;;;18.66;45.74
73415;BME280;61633;53.742;-2.990;2022-07-29T01:37:05;101840.97;;;19.45;45.03
73415;BME280;61633;53.742;-2.990;2022-07-29T01:39:25;101840.94;;;19.15;45.29
73415;BME280;61633;53.742;-2.990;2022-07-29T01:41:53;101842.07;;;19.22;45.47
73415;BME280;61633;53.742;-2.990;2022-07-29T01:44:16;101840.87;;;19.00;44.90
73415;BME280;61633;53.742;-2.990;2022-07-29T01:46:41;101844.13;;;19.56;44.72
73415;BME280;61633;53.742;-2.990;2022-07-29T01:49:10;101843.54;;;19.50;44.88
73415;BME280;61633;53.742;-2.990;2022-07-29T01:51:32;101843.51;;;19.34;45.07
73415;BME280;61633;53.742;-2.990;2022-07-29T01:56:25;101847.14;;;18.05;46.74
73415;BME280;61633;53.742;-2.990;2022-07-29T01:58:46;101849.91;;;17.66;47.75
73415;BME280;61633;53.742;-2.990;2022-07-29T02:01:13;101849.60;;;18.94;46.73
73415;BME280;61633;53.742;-2.990;2022-07-29T02:03:38;101851.13;;;17.94;47.61
73415;BME280;61633;53.742;-2.990;2022-07-29T02:06:03;101851.30;;;18.41;47.95
73415;BME280;61633;53.742;-2.990;2022-07-29T02:08:28;101851.88;;;18.62;47.73
73415;BME280;61633;53.742;-2.990;2022-07-29T02:10:55;101851.59;;;18.33;47.95
73415;BME280;61633;53.742;-2.990;2022-07-29T02:13:21;101851.50;;;18.42;47.49
73415;BME280;61633;53.742;-2.990;2022-07-29T02:15:44;101849.40;;;18.17;48.90
73415;BME280;61633;53.742;-2.990;2022-07-29T02:18:15;101849.19;;;18.57;47.44
73415;BME280;61633;53.742;-2.990;2022-07-29T02:20:36;101846.64;;;18.02;48.97
73415;BME280;61633;53.742;-2.990;2022-07-29T02:23:02;101846.76;;;18.18;48.58
73415;BME280;61633;53.742;-2.990;2022-07-29T02:25:27;101848.39;;;17.91;49.14
73415;BME280;61633;53.742;-2.990;2022-07-29T02:27:53;101845.03;;;18.84;47.53
73415;BME280;61633;53.742;-2.990;2022-07-29T02:30:18;101845.12;;;18.70;48.08
73415;BME280;61633;53.742;-2.990;2022-07-29T02:32:43;101842.61;;;18.27;48.46
73415;BME280;61633;53.742;-2.990;2022-07-29T02:35:09;101841.45;;;18.79;48.30
73415;BME280;61633;53.742;-2.990;2022-07-29T02:37:34;101841.49;;;19.15;48.05
73415;BME280;61633;53.742;-2.990;2022-07-29T02:39:59;101840.80;;;19.04;47.73
73415;BME280;61633;53.742;-2.990;2022-07-29T02:42:27;101839.84;;;18.74;47.70
73415;BME280;61633;53.742;-2.990;2022-07-29T02:44:50;101838.90;;;18.55;48.39
73415;BME280;61633;53.742;-2.990;2022-07-29T02:47:19;101835.92;;;19.24;47.28
73415;BME280;61633;53.742;-2.990;2022-07-29T02:49:46;101833.90;;;18.89;48.14
73415;BME280;61633;53.742;-2.990;2022-07-29T02:52:12;101832.64;;;19.10;47.85
73415;BME280;61633;53.742;-2.990;2022-07-29T02:54:37;101835.79;;;19.11;47.38
73415;BME280;61633;53.742;-2.990;2022-07-29T02:56:59;101835.87;;;18.70;47.51
73415;BME280;61633;53.742;-2.990;2022-07-29T02:59:26;101835.63;;;19.08;47.64
73415;BME280;61633;53.742;-2.990;2022-07-29T03:01:50;101836.40;;;18.61;47.82
73415;BME280;61633;53.742;-2.990;2022-07-29T03:04:15;101838.75;;;18.88;47.65
73415;BME280;61633;53.742;-2.990;2022-07-29T03:06:39;101838.28;;;18.62;48.14
73415;BME280;61633;53.742;-2.990;2022-07-29T03:09:05;101836.01;;;18.64;48.09
73415;BME280;61633;53.742;-2.990;2022-07-29T03:11:32;101833.17;;;18.62;47.46
73415;BME280;61633;53.742;-2.990;2022-07-29T03:13:55;101831.98;;;18.91;47.94
73415;BME280;61633;53.742;-2.990;2022-07-29T03:16:21;101834.41;;;18.66;47.93
73415;BME280;61633;53.742;-2.990;2022-07-29T03:18:46;101832.61;;;19.09;47.64
73415;BME280;61633;53.742;-2.990;2022-07-29T03:21:11;101829.51;;;19.04;47.68
73415;BME280;61633;53.742;-2.990;2022-07-29T03:23:37;101831.52;;;19.36;47.22
73415;BME280;61633;53.742;-2.990;2022-07-29T03:26:02;101837.82;;;18.83;47.78
73415;BME280;61633;53.742;-2.990;2022-07-29T03:28:27;101838.73;;;18.29;49.08
73415;BME280;61633;53.742;-2.990;2022-07-29T03:30:53;101839.56;;;18.81;47.87
73415;BME280;61633;53.742;-2.990;2022-07-29T03:33:19;101846.39;;;18.63;48.09
73415;BME280;61633;53.742;-2.990;2022-07-29T03:35:45;101845.27;;;18.51;47.68
73415;BME280;61633;53.742;-2.990;2022-07-29T03:38:10;101845.77;;;18.75;47.00
73415;BME280;61633;53.742;-2.990;2022-07-29T03:40:38;101846.89;;;18.39;47.93
73415;BME280;61633;53.742;-2.990;2022-07-29T03:43:02;101848.77;;;18.90;47.10
73415;BME280;61633;53.742;-2.990;2022-07-29T03:45:27;101854.31;;;18.83;47.34
73415;BME280;61633;53.742;-2.990;2022-07-29T03:47:54;101854.57;;;18.65;47.40
73415;BME280;61633;53.742;-2.990;2022-07-29T03:50:17;101857.52;;;18.50;46.94
73415;BME280;61633;53.742;-2.990;2022-07-29T03:52:43;101856.25;;;18.92;46.46
73415;BME280;61633;53.742;-2.990;2022-07-29T03:55:09;101859.14;;;19.28;46.32
73415;BME280;61633;53.742;-2.990;2022-07-29T03:57:34;101853.82;;;17.94;48.34
73415;BME280;61633;53.742;-2.990;2022-07-29T04:00:00;101854.31;;;17.83;48.19
73415;BME280;61633;53.742;-2.990;2022-07-29T04:02:24;101852.70;;;18.01;47.62
73415;BME280;61633;53.742;-2.990;2022-07-29T04:04:50;101851.26;;;17.90;47.78
73415;BME280;61633;53.742;-2.990;2022-07-29T04:07:16;101852.16;;;18.75;46.93
73415;BME280;61633;53.742;-2.990;2022-07-29T04:09:41;101850.89;;;18.57;47.38
73415;BME280;61633;53.742;-2.990;2022-07-29T04:12:06;101851.34;;;17.88;47.74
73415;BME280;61633;53.742;-2.990;2022-07-29T04:14:46;101853.56;;;18.38;47.25
73415;BME280;61633;53.742;-2.990;2022-07-29T04:16:57;101851.45;;;18.11;47.89
73415;BME280;61633;53.742;-2.990;2022-07-29T04:19:22;101854.58;;;17.95;48.58
73415;BME280;61633;53.742;-2.990;2022-07-29T04:21:48;101857.25;;;17.71;48.68
73415;BME280;61633;53.742;-2.990;2022-07-29T04:24:14;101861.64;;;17.77;48.10
73415;BME280;61633;53.742;-2.990;2022-07-29T04:26:38;101861.80;;;17.29;48.33
73415;BME280;61633;53.742;-2.990;2022-07-29T04:29:05;101861.12;;;17.46;48.78
73415;BME280;61633;53.742;-2.990;2022-07-29T04:31:30;101865.99;;;18.13;47.48
73415;BME280;61633;53.742;-2.990;2022-07-29T04:33:55;101863.98;;;17.93;48.07
73415;BME280;61633;53.742;-2.990;2022-07-29T04:36:21;101863.25;;;17.69;47.86
73415;BME280;61633;53.742;-2.990;2022-07-29T04:38:46;101870.94;;;16.24;50.56
73415;BME280;61633;53.742;-2.990;2022-07-29T04:41:11;101871.56;;;16.05;50.78
73415;BME280;61633;53.742;-2.990;2022-07-29T04:43:37;101873.22;;;17.12;49.39
73415;BME280;61633;53.742;-2.990;2022-07-29T04:46:03;101872.61;;;17.47;48.67
73415;BME280;61633;53.742;-2.990;2022-07-29T04:48:28;101871.78;;;17.49;48.74
73415;BME280;61633;53.742;-2.990;2022-07-29T04:50:54;101869.72;;;17.69;47.79
73415;BME280;61633;53.742;-2.990;2022-07-29T04:53:19;101868.27;;;17.36;48.85
73415;BME280;61633;53.742;-2.990;2022-07-29T04:55:45;101871.02;;;16.91;48.61
73415;BME280;61633;53.742;-2.990;2022-07-29T04:58:15;101873.82;;;17.32;49.48
73415;BME280;61633;53.742;-2.990;2022-07-29T05:00:36;101872.53;;;17.84;48.32
73415;BME280;61633;53.742;-2.990;2022-07-29T05:03:01;101871.12;;;17.48;48.61
73415;BME280;61633;53.742;-2.990;2022-07-29T05:05:27;101872.09;;;16.46;49.76
73415;BME280;61633;53.742;-2.990;2022-07-29T05:07:52;101878.38;;;18.16;47.56
73415;BME280;61633;53.742;-2.990;2022-07-29T05:10:18;101882.66;;;17.85;48.27
73415;BME280;61633;53.742;-2.990;2022-07-29T05:12:43;101884.62;;;18.07;48.13
73415;BME280;61633;53.742;-2.990;2022-07-29T05:15:10;101889.27;;;18.24;47.55
73415;BME280;61633;53.742;-2.990;2022-07-29T05:17:34;101890.37;;;18.31;47.01
73415;BME280;61633;53.742;-2.990;2022-07-29T05:19:59;101890.07;;;17.83;47.49
73415;BME280;61633;53.742;-2.990;2022-07-29T05:22:25;101888.77;;;17.67;47.67
73415;BME280;61633;53.742;-2.990;2022-07-29T05:24:50;101890.12;;;17.59;47.90
73415;BME280;61633;53.742;-2.990;2022-07-29T05:27:16;101892.17;;;17.98;47.18
73415;BME280;61633;53.742;-2.990;2022-07-29T05:29:41;101895.45;;;17.88;47.18
73415;BME280;61633;53.742;-2.990;2022-07-29T05:32:07;101895.33;;;18.55;46.37
73415;BME280;61633;53.742;-2.990;2022-07-29T05:34:32;101890.04;;;17.75;47.61
73415;BME280;61633;53.742;-2.990;2022-07-29T05:36:58;101889.71;;;17.71;47.07
73415;BME280;61633;53.742;-2.990;2022-07-29T05:39:24;101893.89;;;18.26;47.61
73415;BME280;61633;53.742;-2.990;2022-07-29T05:41:49;101906.16;;;18.76;45.83
73415;BME280;61633;53.742;-2.990;2022-07-29T05:44:15;101907.30;;;18.35;46.64
73415;BME280;61633;53.742;-2.990;2022-07-29T05:46:40;101909.14;;;18.18;46.79
73415;BME280;61633;53.742;-2.990;2022-07-29T05:49:05;101909.28;;;18.14;46.82
73415;BME280;61633;53.742;-2.990;2022-07-29T05:51:30;101911.99;;;18.38;46.24
73415;BME280;61633;53.742;-2.990;2022-07-29T05:53:56;101909.16;;;17.92;46.75
73415;BME280;61633;53.742;-2.990;2022-07-29T05:56:21;101910.97;;;17.08;49.10
73415;BME280;61633;53.742;-2.990;2022-07-29T05:58:47;101910.34;;;18.08;47.35
73415;BME280;61633;53.742;-2.990;2022-07-29T06:01:12;101908.12;;;18.47;46.20
73415;BME280;61633;53.742;-2.990;2022-07-29T06:03:38;101904.05;;;18.36;46.61
73415;BME280;61633;53.742;-2.990;2022-07-29T06:06:03;101905.85;;;18.42;46.23
73415;BME280;61633;53.742;-2.990;2022-07-29T06:08:29;101905.28;;;18.20;47.26
73415;BME280;61633;53.742;-2.990;2022-07-29T06:10:54;101909.92;;;18.01;47.71
73415;BME280;61633;53.742;-2.990;2022-07-29T06:13:20;101914.49;;;18.89;46.14
73415;BME280;61633;53.742;-2.990;2022-07-29T06:15:45;101917.54;;;18.23;46.68
73415;BME280;61633;53.742;-2.990;2022-07-29T06:18:12;101916.78;;;18.01;46.96
73415;BME280;61633;53.742;-2.990;2022-07-29T06:20:36;101922.52;;;17.90;46.73
73415;BME280;61633;53.742;-2.990;2022-07-29T06:23:01;101929.34;;;17.57;47.73
73415;BME280;61633;53.742;-2.990;2022-07-29T06:25:27;101933.10;;;18.63;45.41
73415;BME280;61633;53.742;-2.990;2022-07-29T06:27:52;101934.59;;;18.27;46.52
73415;BME280;61633;53.742;-2.990;2022-07-29T06:30:18;101936.68;;;18.43;45.52
73415;BME280;61633;53.742;-2.990;2022-07-29T06:32:43;101938.84;;;18.19;45.63
73415;BME280;61633;53.742;-2.990;2022-07-29T06:35:12;101940.50;;;17.10;47.74
73415;BME280;61633;53.742;-2.990;2022-07-29T06:37:34;101937.65;;;17.63;47.19
73415;BME280;61633;53.742;-2.990;2022-07-29T06:39:59;101938.15;;;18.02;46.86
73415;BME280;61633;53.742;-2.990;2022-07-29T06:42:25;101941.95;;;16.69;50.07
73415;BME280;61633;53.742;-2.990;2022-07-29T06:44:50;101935.14;;;17.79;48.05
73415;BME280;61633;53.742;-2.990;2022-07-29T06:47:16;101934.48;;;18.11;47.77
73415;BME280;61633;53.742;-2.990;2022-07-29T06:49:41;101936.33;;;18.60;46.97
73415;BME280;61633;53.742;-2.990;2022-07-29T06:52:07;101939.84;;;18.31;47.37
73415;BME280;61633;53.742;-2.990;2022-07-29T06:54:32;101943.48;;;17.96;46.85
73415;BME280;61633;53.742;-2.990;2022-07-29T06:56:58;101942.59;;;18.11;46.51
73415;BME280;61633;53.742;-2.990;2022-07-29T06:59:23;101940.30;;;17.93;47.02
73415;BME280;61633;53.742;-2.990;2022-07-29T07:01:48;101941.14;;;18.10;46.71
73415;BME280;61633;53.742;-2.990;2022-07-29T07:04:14;101941.09;;;19.07;46.04
73415;BME280;61633;53.742;-2.990;2022-07-29T07:06:39;101943.54;;;18.77;46.44
73415;BME280;61633;53.742;-2.990;2022-07-29T07:09:05;101938.29;;;18.00;46.77
73415;BME280;61633;53.742;-2.990;2022-07-29T07:11:30;101937.03;;;17.38;47.70
73415;BME280;61633;53.742;-2.990;2022-07-29T07:13:56;101942.99;;;18.71;45.78
73415;BME280;61633;53.742;-2.990;2022-07-29T07:16:22;101942.05;;;18.44;46.15
73415;BME280;61633;53.742;-2.990;2022-07-29T07:18:47;101947.65;;;18.96;45.80
73415;BME280;61633;53.742;-2.990;2022-07-29T07:21:13;101942.81;;;18.00;47.44
73415;BME280;61633;53.742;-2.990;2022-07-29T07:23:38;101948.48;;;18.48;46.21
73415;BME280;61633;53.742;-2.990;2022-07-29T07:26:03;101950.21;;;17.91;47.40
73415;BME280;61633;53.742;-2.990;2022-07-29T07:28:28;101952.89;;;18.21;46.93
73415;BME280;61633;53.742;-2.990;2022-07-29T07:30:54;101954.45;;;17.68;48.37
73415;BME280;61633;53.742;-2.990;2022-07-29T07:33:20;101954.63;;;17.43;49.06
73415;BME280;61633;53.742;-2.990;2022-07-29T07:35:45;101956.70;;;16.23;50.71
73415;BME280;61633;53.742;-2.990;2022-07-29T07:38:10;101955.61;;;17.41;49.31
73415;BME280;61633;53.742;-2.990;2022-07-29T07:40:36;101954.80;;;17.42;49.78
73415;BME280;61633;53.742;-2.990;2022-07-29T07:43:01;101951.00;;;17.68;49.34
73415;BME280;61633;53.742;-2.990;2022-07-29T07:45:27;101953.07;;;17.13;49.83
73415;BME280;61633;53.742;-2.990;2022-07-29T07:47:57;101951.01;;;17.56;49.00
73415;BME280;61633;53.742;-2.990;2022-07-29T07:50:18;101949.98;;;17.61;48.05
73415;BME280;61633;53.742;-2.990;2022-07-29T07:52:48;101953.45;;;16.88;50.75
73415;BME280;61633;53.742;-2.990;2022-07-29T07:55:09;101950.99;;;16.55;51.11
73415;BME280;61633;53.742;-2.990;2022-07-29T07:57:34;101950.08;;;17.47;49.54
73415;BME280;61633;53.742;-2.990;2022-07-29T08:00:00;101951.17;;;16.15;51.80
73415;BME280;61633;53.742;-2.990;2022-07-29T08:02:25;101948.13;;;16.83;50.76
73415;BME280;61633;53.742;-2.990;2022-07-29T08:04:50;101948.34;;;16.55;51.52
73415;BME280;61633;53.742;-2.990;2022-07-29T08:07:16;101948.31;;;16.21;52.36
73415;BME280;61633;53.742;-2.990;2022-07-29T08:09:42;101943.41;;;17.96;49.71
73415;BME280;61633;53.742;-2.990;2022-07-29T08:12:07;101947.54;;;16.51;51.62
73415;BME280;61633;53.742;-2.990;2022-07-29T08:14:32;101947.11;;;17.21;49.91
73415;BME280;61633;53.742;-2.990;2022-07-29T08:16:58;101945.57;;;17.04;50.71
73415;BME280;61633;53.742;-2.990;2022-07-29T08:19:24;101938.96;;;18.00;48.55
73415;BME280;61633;53.742;-2.990;2022-07-29T08:21:49;101940.99;;;17.90;48.11
73415;BME280;61633;53.742;-2.990;2022-07-29T08:24:15;101944.43;;;16.81;50.93
73415;BME280;61633;53.742;-2.990;2022-07-29T08:26:41;101942.68;;;16.50;51.10
73415;BME280;61633;53.742;-2.990;2022-07-29T08:29:05;101938.16;;;16.69;50.87
73415;BME280;61633;53.742;-2.990;2022-07-29T08:31:31;101942.55;;;16.37;51.54
73415;BME280;61633;53.742;-2.990;2022-07-29T08:33:56;101940.72;;;16.82;51.61
73415;BME280;61633;53.742;-2.990;2022-07-29T08:36:22;101938.90;;;17.76;50.18
73415;BME280;61633;53.742;-2.990;2022-07-29T08:38:48;101931.37;;;18.26;48.23
73415;BME280;61633;53.742;-2.990;2022-07-29T08:41:13;101935.06;;;17.79;49.62
73415;BME280;61633;53.742;-2.990;2022-07-29T08:43:40;101939.70;;;16.60;51.91
73415;BME280;61633;53.742;-2.990;2022-07-29T08:46:04;101936.88;;;17.48;50.31
73415;BME280;61633;53.742;-2.990;2022-07-29T08:48:30;101938.49;;;16.92;51.22
73415;BME280;61633;53.742;-2.990;2022-07-29T08:50:56;101943.34;;;17.07;50.76
73415;BME280;61633;53.742;-2.990;2022-07-29T08:53:21;101937.82;;;18.42;47.89
73415;BME280;61633;53.742;-2.990;2022-07-29T08:55:48;101941.12;;;18.31;47.79
73415;BME280;61633;53.742;-2.990;2022-07-29T08:58:12;101943.54;;;18.28;48.39
73415;BME280;61633;53.742;-2.990;2022-07-29T09:00:42;101943.05;;;17.79;48.73
73415;BME280;61633;53.742;-2.990;2022-07-29T09:03:05;101943.53;;;18.48;47.98
73415;BME280;61633;53.742;-2.990;2022-07-29T09:05:28;101945.73;;;18.32;48.34
73415;BME280;61633;53.742;-2.990;2022-07-29T09:07:53;101947.58;;;18.30;47.78
73415;BME280;61633;53.742;-2.990;2022-07-29T09:10:18;101944.43;;;17.72;48.09
73415;BME280;61633;53.742;-2.990;2022-07-29T09:12:44;101951.70;;;18.67;46.76
73415;BME280;61633;53.742;-2.990;2022-07-29T09:15:10;101950.64;;;18.30;47.35
73415;BME280;61633;53.742;-2.990;2022-07-29T09:17:42;101949.90;;;18.34;47.75
73415;BME280;61633;53.742;-2.990;2022-07-29T09:20:08;101948.70;;;18.73;47.88
73415;BME280;61633;53.742;-2.990;2022-07-29T09:22:29;101953.66;;;18.68;47.11
73415;BME280;61633;53.742;-2.990;2022-07-29T09:24:50;101949.49;;;19.81;44.72
73415;BME280;61633;53.742;-2.990;2022-07-29T09:27:22;101952.65;;;19.63;45.04
73415;BME280;61633;53.742;-2.990;2022-07-29T09:29:41;101949.31;;;19.99;43.89
73415;BME280;61633;53.742;-2.990;2022-07-29T09:32:09;101951.75;;;19.57;45.29
73415;BME280;61633;53.742;-2.990;2022-07-29T09:34:32;101948.35;;;19.51;44.69
73415;BME280;61633;53.742;-2.990;2022-07-29T09:36:58;101945.42;;;19.41;44.98
73415;BME280;61633;53.742;-2.990;2022-07-29T09:39:28;101941.55;;;20.72;43.40
73415;BME280;61633;53.742;-2.990;2022-07-29T09:41:51;101941.53;;;20.03;43.47
73415;BME280;61633;53.742;-2.990;2022-07-29T09:44:15;101946.59;;;19.52;44.60
73415;BME280;61633;53.742;-2.990;2022-07-29T09:46:39;101946.84;;;20.33;43.35
73415;BME280;61633;53.742;-2.990;2022-07-29T09:49:06;101942.68;;;20.94;42.71
73415;BME280;61633;53.742;-2.990;2022-07-29T09:51:31;101947.01;;;21.48;41.41
73415;BME280;61633;53.742;-2.990;2022-07-29T09:53:55;101946.92;;;20.64;42.63
73415;BME280;61633;53.742;-2.990;2022-07-29T09:58:46;101951.62;;;21.04;41.50
73415;BME280;61633;53.742;-2.990;2022-07-29T10:01:12;101950.79;;;20.78;42.03
73415;BME280;61633;53.742;-2.990;2022-07-29T10:03:50;101952.42;;;20.43;41.97
73415;BME280;61633;53.742;-2.990;2022-07-29T10:06:07;101949.86;;;20.31;42.62
73415;BME280;61633;53.742;-2.990;2022-07-29T10:08:28;101954.65;;;21.42;41.38
73415;BME280;61633;53.742;-2.990;2022-07-29T10:13:19;101955.76;;;20.14;43.34
73415;BME280;61633;53.742;-2.990;2022-07-29T10:15:45;101949.74;;;20.95;41.08
73415;BME280;61633;53.742;-2.990;2022-07-29T10:18:11;101949.03;;;22.19;38.44
73415;BME280;61633;53.742;-2.990;2022-07-29T10:20:36;101952.13;;;21.06;39.58
73415;BME280;61633;53.742;-2.990;2022-07-29T10:23:00;101952.44;;;20.40;41.77
73415;BME280;61633;53.742;-2.990;2022-07-29T10:25:26;101951.39;;;20.68;41.77
73415;BME280;61633;53.742;-2.990;2022-07-29T10:27:53;101952.61;;;21.82;39.76
73415;BME280;61633;53.742;-2.990;2022-07-29T10:30:18;101954.64;;;21.76;40.12
73415;BME280;61633;53.742;-2.990;2022-07-29T10:32:56;101956.86;;;21.55;39.90
73415;BME280;61633;53.742;-2.990;2022-07-29T10:35:17;101956.58;;;21.08;40.61
73415;BME280;61633;53.742;-2.990;2022-07-29T10:37:49;101956.12;;;21.50;40.29
73415;BME280;61633;53.742;-2.990;2022-07-29T10:40:05;101952.37;;;21.88;40.12
73415;BME280;61633;53.742;-2.990;2022-07-29T10:42:25;101957.08;;;21.43;40.19
73415;BME280;61633;53.742;-2.990;2022-07-29T10:44:49;101952.82;;;20.99;39.97
73415;BME280;61633;53.742;-2.990;2022-07-29T10:47:21;101947.27;;;22.18;38.86
73415;BME280;61633;53.742;-2.990;2022-07-29T10:52:06;101948.85;;;20.68;41.88
73415;BME280;61633;53.742;-2.990;2022-07-29T10:54:44;101943.73;;;20.44;41.87
73415;BME280;61633;53.742;-2.990;2022-07-29T10:56:56;101938.72;;;21.39;41.71
73415;BME280;61633;53.742;-2.990;2022-07-29T10:59:24;101939.30;;;21.82;40.54
73415;BME280;61633;53.742;-2.990;2022-07-29T11:01:48;101933.46;;;22.19;40.47
73415;BME280;61633;53.742;-2.990;2022-07-29T11:04:12;101936.88;;;21.63;40.52
73415;BME280;61633;53.742;-2.990;2022-07-29T11:09:15;101933.65;;;20.81;42.95
73415;BME280;61633;53.742;-2.990;2022-07-29T11:11:33;101933.01;;;20.66;41.64
73415;BME280;61633;53.742;-2.990;2022-07-29T11:13:54;101932.08;;;22.30;40.18
73415;BME280;61633;53.742;-2.990;2022-07-29T11:16:24;101932.67;;;21.56;40.45
73415;BME280;61633;53.742;-2.990;2022-07-29T11:23:41;101924.06;;;22.42;40.12
73415;BME280;61633;53.742;-2.990;2022-07-29T11:26:15;101922.78;;;22.92;39.07
73415;BME280;61633;53.742;-2.990;2022-07-29T11:28:26;101923.48;;;22.76;37.74
73415;BME280;61633;53.742;-2.990;2022-07-29T11:30:53;101929.62;;;23.79;37.91
73415;BME280;61633;53.742;-2.990;2022-07-29T11:33:28;101933.59;;;21.98;38.84
73415;BME280;61633;53.742;-2.990;2022-07-29T11:38:24;101943.31;;;23.74;37.32
73415;BME280;61633;53.742;-2.990;2022-07-29T11:40:32;101943.40;;;22.90;38.63
73415;BME280;61633;53.742;-2.990;2022-07-29T11:42:59;101943.58;;;22.33;38.48
73415;BME280;61633;53.742;-2.990;2022-07-29T11:45:25;101942.35;;;23.55;36.26
73415;BME280;61633;53.742;-2.990;2022-07-29T11:47:50;101938.08;;;23.07;37.15
73415;BME280;61633;53.742;-2.990;2022-07-29T11:50:17;101935.67;;;23.21;38.35
73415;BME280;61633;53.742;-2.990;2022-07-29T11:52:41;101933.45;;;22.82;37.92
73415;BME280;61633;53.742;-2.990;2022-07-29T11:55:06;101933.03;;;22.48;38.46
73415;BME280;61633;53.742;-2.990;2022-07-29T11:57:30;101931.11;;;22.37;38.53
73415;BME280;61633;53.742;-2.990;2022-07-29T11:59:55;101934.03;;;22.04;39.13
73415;BME280;61633;53.742;-2.990;2022-07-29T12:02:20;101932.25;;;23.24;37.35
73415;BME280;61633;53.742;-2.990;2022-07-29T12:04:49;101931.65;;;21.79;38.50
73415;BME280;61633;53.742;-2.990;2022-07-29T12:07:10;101926.93;;;22.44;37.20
73415;BME280;61633;53.742;-2.990;2022-07-29T12:09:36;101925.92;;;22.90;36.67
73415;BME280;61633;53.742;-2.990;2022-07-29T12:12:01;101927.72;;;22.55;38.77
73415;BME280;61633;53.742;-2.990;2022-07-29T12:14:28;101933.37;;;23.87;35.86
73415;BME280;61633;53.742;-2.990;2022-07-29T12:16:51;101932.13;;;23.81;36.40
73415;BME280;61633;53.742;-2.990;2022-07-29T12:19:16;101923.99;;;22.31;37.26
73415;BME280;61633;53.742;-2.990;2022-07-29T12:21:44;101920.74;;;24.23;34.72
73415;BME280;61633;53.742;-2.990;2022-07-29T12:24:07;101913.47;;;24.15;34.26
73415;BME280;61633;53.742;-2.990;2022-07-29T12:26:33;101912.82;;;24.28;34.42
73415;BME280;61633;53.742;-2.990;2022-07-29T12:28:57;101907.56;;;24.38;34.38
73415;BME280;61633;53.742;-2.990;2022-07-29T12:31:23;101907.58;;;24.22;33.89
73415;BME280;61633;53.742;-2.990;2022-07-29T12:33:55;101901.31;;;24.38;33.90
73415;BME280;61633;53.742;-2.990;2022-07-29T12:36:18;101889.37;;;24.59;34.17
73415;BME280;61633;53.742;-2.990;2022-07-29T12:38:41;101891.90;;;24.64;34.70
73415;BME280;61633;53.742;-2.990;2022-07-29T12:41:04;101893.51;;;25.37;34.33
73415;BME280;61633;53.742;-2.990;2022-07-29T12:43:30;101893.47;;;25.66;32.27
73415;BME280;61633;53.742;-2.990;2022-07-29T12:45:56;101894.90;;;24.38;32.78
73415;BME280;61633;53.742;-2.990;2022-07-29T12:48:32;101898.71;;;24.79;34.48
73415;BME280;61633;53.742;-2.990;2022-07-29T12:50:56;101899.52;;;25.07;31.83